This is the latest recevied weather packets stored in our database for station/object W7BL. If no packets are shown the sender has not sent any weather packets the latest 10 day(s).
| Time | Temp. | Humidity | Pressure | Rain* | Wind** | Luminosity | Snow |
|---|---|---|---|---|---|---|---|
| 1777986218 | 11.11° C | 70% | - | 0 mm | - | - | - |
| 1777985915 | 11.11° C | 70% | - | 0 mm | - | - | - |
| 1777985612 | 11.11° C | 69% | - | 0 mm | - | - | - |
| 1777985309 | 12.22° C | 65% | - | 0 mm | - | - | - |
| 1777985006 | 13.89° C | 60% | - | 0 mm | - | - | - |
| 1777984702 | 14.44° C | 59% | - | 0 mm | - | - | - |
| 1777984399 | 14.44° C | 59% | - | 0 mm | - | - | - |
| 1777984095 | 15° C | 58% | - | 0 mm | - | - | - |
| 1777983792 | 15° C | 58% | - | 0 mm | - | - | - |
| 1777983488 | 15° C | 57% | - | 0 mm | - | - | - |
| 1777983186 | 15° C | 57% | - | 0 mm | - | - | - |
| 1777982882 | 15° C | 57% | - | 0 mm | - | - | - |
| 1777982578 | 15° C | 57% | - | 0 mm | - | - | - |
| 1777982277 | 15° C | 57% | - | 0 mm | - | - | - |
| 1777981974 | 14.44° C | 57% | - | 0 mm | - | - | - |
| 1777981671 | 14.44° C | 57% | - | 0 mm | - | - | - |
| 1777981367 | 14.44° C | 57% | - | 0 mm | - | - | - |
| 1777981065 | 14.44° C | 57% | - | 0 mm | - | - | - |
| 1777980761 | 13.89° C | 59% | - | 0 mm | - | - | - |
| 1777980457 | 13.89° C | 58% | - | 0 mm | - | - | - |
| 1777980155 | 12.78° C | 62% | - | 0 mm | - | - | - |
| 1777979855 | 12.78° C | 60% | - | 0 mm | - | - | - |
| 1777979551 | 13.33° C | 59% | - | 0 mm | - | - | - |
| 1777979247 | 15° C | 55% | - | 0 mm | - | - | - |
| 1777978945 | 15.56° C | 52% | - | 0 mm | - | - | - |
* Rain latest hour (hover to see other rain measurements)
** Current wind speed in m/s (hover to see current wind gust speed)